sensor_id;sensor_type;location;lat;lon;timestamp;P1;durP1;ratioP1;P2;durP2;ratioP2
31262;SDS011;17892;52.080;9.006;2023-02-23T00:01:47;10.23;;;6.78;;
31262;SDS011;17892;52.080;9.006;2023-02-23T00:04:13;10.43;;;6.90;;
31262;SDS011;17892;52.080;9.006;2023-02-23T00:06:39;10.68;;;7.13;;
31262;SDS011;17892;52.080;9.006;2023-02-23T00:09:05;11.07;;;7.47;;
31262;SDS011;17892;52.080;9.006;2023-02-23T00:11:35;11.63;;;7.70;;
31262;SDS011;17892;52.080;9.006;2023-02-23T00:14:02;11.20;;;8.27;;
31262;SDS011;17892;52.080;9.006;2023-02-23T00:16:28;12.05;;;8.70;;
31262;SDS011;17892;52.080;9.006;2023-02-23T00:18:54;13.30;;;8.57;;
31262;SDS011;17892;52.080;9.006;2023-02-23T00:21:27;12.57;;;8.50;;
31262;SDS011;17892;52.080;9.006;2023-02-23T00:24:03;13.90;;;8.30;;
31262;SDS011;17892;52.080;9.006;2023-02-23T00:26:33;12.98;;;8.50;;
31262;SDS011;17892;52.080;9.006;2023-02-23T00:29:01;14.68;;;9.60;;
31262;SDS011;17892;52.080;9.006;2023-02-23T00:31:30;13.30;;;8.38;;
31262;SDS011;17892;52.080;9.006;2023-02-23T00:33:57;13.60;;;9.18;;
31262;SDS011;17892;52.080;9.006;2023-02-23T00:36:26;13.48;;;9.10;;
31262;SDS011;17892;52.080;9.006;2023-02-23T00:38:58;15.70;;;10.48;;
31262;SDS011;17892;52.080;9.006;2023-02-23T00:41:26;14.50;;;8.45;;
31262;SDS011;17892;52.080;9.006;2023-02-23T00:43:54;13.60;;;9.27;;
31262;SDS011;17892;52.080;9.006;2023-02-23T00:46:22;12.93;;;8.73;;
31262;SDS011;17892;52.080;9.006;2023-02-23T00:48:52;13.00;;;9.00;;
31262;SDS011;17892;52.080;9.006;2023-02-23T00:51:19;15.07;;;9.80;;
31262;SDS011;17892;52.080;9.006;2023-02-23T00:53:46;15.75;;;10.05;;
31262;SDS011;17892;52.080;9.006;2023-02-23T00:56:12;16.98;;;9.93;;
31262;SDS011;17892;52.080;9.006;2023-02-23T00:58:40;14.02;;;9.55;;
31262;SDS011;17892;52.080;9.006;2023-02-23T01:01:07;14.82;;;9.85;;
31262;SDS011;17892;52.080;9.006;2023-02-23T01:03:36;15.55;;;10.48;;
31262;SDS011;17892;52.080;9.006;2023-02-23T01:06:03;15.15;;;9.75;;
31262;SDS011;17892;52.080;9.006;2023-02-23T01:08:32;13.85;;;9.82;;
31262;SDS011;17892;52.080;9.006;2023-02-23T01:10:59;17.88;;;11.43;;
31262;SDS011;17892;52.080;9.006;2023-02-23T01:13:38;17.98;;;11.43;;
31262;SDS011;17892;52.080;9.006;2023-02-23T01:16:06;18.50;;;12.52;;
31262;SDS011;17892;52.080;9.006;2023-02-23T01:18:35;20.92;;;12.93;;
31262;SDS011;17892;52.080;9.006;2023-02-23T01:21:03;17.13;;;11.32;;
31262;SDS011;17892;52.080;9.006;2023-02-23T01:23:30;17.88;;;11.48;;
31262;SDS011;17892;52.080;9.006;2023-02-23T01:25:56;16.40;;;10.70;;
31262;SDS011;17892;52.080;9.006;2023-02-23T01:28:22;15.40;;;10.45;;
31262;SDS011;17892;52.080;9.006;2023-02-23T01:30:48;14.88;;;10.23;;
31262;SDS011;17892;52.080;9.006;2023-02-23T01:33:14;15.45;;;10.27;;
31262;SDS011;17892;52.080;9.006;2023-02-23T01:35:40;16.67;;;10.52;;
31262;SDS011;17892;52.080;9.006;2023-02-23T01:38:07;15.13;;;9.90;;
31262;SDS011;17892;52.080;9.006;2023-02-23T01:40:34;16.17;;;11.10;;
31262;SDS011;17892;52.080;9.006;2023-02-23T01:43:11;17.70;;;11.55;;
31262;SDS011;17892;52.080;9.006;2023-02-23T01:45:50;20.55;;;12.88;;
31262;SDS011;17892;52.080;9.006;2023-02-23T01:48:21;17.98;;;13.05;;
31262;SDS011;17892;52.080;9.006;2023-02-23T01:51:10;20.63;;;14.00;;
31262;SDS011;17892;52.080;9.006;2023-02-23T01:53:41;19.15;;;12.45;;
31262;SDS011;17892;52.080;9.006;2023-02-23T01:56:11;20.08;;;11.70;;
31262;SDS011;17892;52.080;9.006;2023-02-23T01:58:41;16.42;;;10.23;;
31262;SDS011;17892;52.080;9.006;2023-02-23T02:01:11;18.92;;;12.38;;
31262;SDS011;17892;52.080;9.006;2023-02-23T02:03:42;16.58;;;11.32;;
31262;SDS011;17892;52.080;9.006;2023-02-23T02:06:12;17.67;;;11.40;;
31262;SDS011;17892;52.080;9.006;2023-02-23T02:08:46;15.57;;;10.55;;
31262;SDS011;17892;52.080;9.006;2023-02-23T02:11:18;14.30;;;10.70;;
31262;SDS011;17892;52.080;9.006;2023-02-23T02:14:15;16.55;;;10.45;;
31262;SDS011;17892;52.080;9.006;2023-02-23T02:19:51;18.63;;;11.93;;
31262;SDS011;17892;52.080;9.006;2023-02-23T02:38:11;28.05;;;18.67;;
31262;SDS011;17892;52.080;9.006;2023-02-23T02:40:52;27.05;;;18.88;;
31262;SDS011;17892;52.080;9.006;2023-02-23T02:43:50;25.60;;;16.10;;
31262;SDS011;17892;52.080;9.006;2023-02-23T02:46:28;23.58;;;15.95;;
31262;SDS011;17892;52.080;9.006;2023-02-23T02:51:54;22.15;;;15.07;;
31262;SDS011;17892;52.080;9.006;2023-02-23T02:54:45;25.02;;;15.57;;
31262;SDS011;17892;52.080;9.006;2023-02-23T02:57:17;22.25;;;14.95;;
31262;SDS011;17892;52.080;9.006;2023-02-23T02:59:48;24.92;;;16.13;;
31262;SDS011;17892;52.080;9.006;2023-02-23T03:02:34;24.38;;;16.05;;
31262;SDS011;17892;52.080;9.006;2023-02-23T03:05:29;21.73;;;15.32;;
31262;SDS011;17892;52.080;9.006;2023-02-23T03:12:16;24.77;;;17.10;;
31262;SDS011;17892;52.080;9.006;2023-02-23T03:19:10;23.42;;;15.80;;
31262;SDS011;17892;52.080;9.006;2023-02-23T03:22:15;24.55;;;15.35;;
31262;SDS011;17892;52.080;9.006;2023-02-23T03:25:13;27.13;;;16.02;;
31262;SDS011;17892;52.080;9.006;2023-02-23T03:34:19;23.55;;;15.35;;
31262;SDS011;17892;52.080;9.006;2023-02-23T03:37:26;27.77;;;18.88;;
31262;SDS011;17892;52.080;9.006;2023-02-23T03:40:22;32.05;;;20.10;;
31262;SDS011;17892;52.080;9.006;2023-02-23T03:43:15;33.35;;;17.70;;
31262;SDS011;17892;52.080;9.006;2023-02-23T03:46:06;28.17;;;17.10;;
31262;SDS011;17892;52.080;9.006;2023-02-23T03:48:53;26.38;;;16.42;;
31262;SDS011;17892;52.080;9.006;2023-02-23T03:51:39;24.10;;;15.80;;
31262;SDS011;17892;52.080;9.006;2023-02-23T03:54:33;24.50;;;15.73;;
31262;SDS011;17892;52.080;9.006;2023-02-23T03:57:30;24.65;;;16.13;;
31262;SDS011;17892;52.080;9.006;2023-02-23T04:00:28;25.73;;;16.50;;
31262;SDS011;17892;52.080;9.006;2023-02-23T04:03:17;23.98;;;15.88;;
31262;SDS011;17892;52.080;9.006;2023-02-23T04:06:06;23.60;;;15.38;;
31262;SDS011;17892;52.080;9.006;2023-02-23T04:08:55;27.35;;;18.10;;
31262;SDS011;17892;52.080;9.006;2023-02-23T04:11:57;28.92;;;18.10;;
31262;SDS011;17892;52.080;9.006;2023-02-23T04:15:02;27.65;;;17.25;;
31262;SDS011;17892;52.080;9.006;2023-02-23T04:17:39;30.52;;;17.13;;
31262;SDS011;17892;52.080;9.006;2023-02-23T04:20:07;26.60;;;16.45;;
31262;SDS011;17892;52.080;9.006;2023-02-23T04:22:36;27.48;;;18.17;;
31262;SDS011;17892;52.080;9.006;2023-02-23T04:25:02;27.23;;;16.05;;
31262;SDS011;17892;52.080;9.006;2023-02-23T04:27:30;25.83;;;16.05;;
31262;SDS011;17892;52.080;9.006;2023-02-23T04:29:56;28.20;;;17.17;;
31262;SDS011;17892;52.080;9.006;2023-02-23T04:32:22;31.58;;;18.27;;
31262;SDS011;17892;52.080;9.006;2023-02-23T04:34:48;28.20;;;16.27;;
31262;SDS011;17892;52.080;9.006;2023-02-23T04:37:14;28.65;;;18.25;;
31262;SDS011;17892;52.080;9.006;2023-02-23T04:39:40;26.45;;;15.88;;
31262;SDS011;17892;52.080;9.006;2023-02-23T04:42:12;25.15;;;16.77;;
31262;SDS011;17892;52.080;9.006;2023-02-23T04:44:38;28.90;;;18.73;;
31262;SDS011;17892;52.080;9.006;2023-02-23T04:47:04;29.67;;;19.50;;
31262;SDS011;17892;52.080;9.006;2023-02-23T04:49:29;31.90;;;18.33;;
31262;SDS011;17892;52.080;9.006;2023-02-23T04:51:55;29.30;;;17.67;;
31262;SDS011;17892;52.080;9.006;2023-02-23T04:54:21;31.75;;;19.98;;
31262;SDS011;17892;52.080;9.006;2023-02-23T04:56:46;30.02;;;18.55;;
31262;SDS011;17892;52.080;9.006;2023-02-23T04:59:12;25.33;;;15.93;;
31262;SDS011;17892;52.080;9.006;2023-02-23T05:01:38;29.63;;;18.98;;
31262;SDS011;17892;52.080;9.006;2023-02-23T05:04:03;29.25;;;18.45;;
31262;SDS011;17892;52.080;9.006;2023-02-23T05:06:29;26.73;;;17.45;;
31262;SDS011;17892;52.080;9.006;2023-02-23T05:08:56;31.10;;;20.02;;
31262;SDS011;17892;52.080;9.006;2023-02-23T05:11:22;28.63;;;16.92;;
31262;SDS011;17892;52.080;9.006;2023-02-23T05:13:48;26.55;;;16.92;;
31262;SDS011;17892;52.080;9.006;2023-02-23T05:16:14;29.58;;;19.33;;
31262;SDS011;17892;52.080;9.006;2023-02-23T05:18:41;28.35;;;18.13;;
31262;SDS011;17892;52.080;9.006;2023-02-23T05:21:07;29.40;;;16.60;;
31262;SDS011;17892;52.080;9.006;2023-02-23T05:23:35;25.30;;;14.68;;
31262;SDS011;17892;52.080;9.006;2023-02-23T05:26:02;27.75;;;17.65;;
31262;SDS011;17892;52.080;9.006;2023-02-23T05:28:33;28.00;;;17.15;;
31262;SDS011;17892;52.080;9.006;2023-02-23T05:31:01;28.58;;;17.38;;
31262;SDS011;17892;52.080;9.006;2023-02-23T05:33:27;29.20;;;18.52;;
31262;SDS011;17892;52.080;9.006;2023-02-23T05:35:57;30.40;;;18.92;;
31262;SDS011;17892;52.080;9.006;2023-02-23T05:38:23;28.45;;;16.67;;
31262;SDS011;17892;52.080;9.006;2023-02-23T05:40:49;25.48;;;16.13;;
31262;SDS011;17892;52.080;9.006;2023-02-23T05:43:15;28.05;;;16.42;;
31262;SDS011;17892;52.080;9.006;2023-02-23T05:45:41;29.42;;;17.58;;
31262;SDS011;17892;52.080;9.006;2023-02-23T05:48:11;26.33;;;17.48;;
31262;SDS011;17892;52.080;9.006;2023-02-23T05:53:03;24.83;;;14.93;;
31262;SDS011;17892;52.080;9.006;2023-02-23T05:55:29;29.42;;;16.00;;
31262;SDS011;17892;52.080;9.006;2023-02-23T05:57:55;31.95;;;18.45;;
31262;SDS011;17892;52.080;9.006;2023-02-23T06:00:21;29.00;;;18.52;;
31262;SDS011;17892;52.080;9.006;2023-02-23T06:02:47;29.73;;;18.27;;
31262;SDS011;17892;52.080;9.006;2023-02-23T06:05:16;27.38;;;17.02;;
31262;SDS011;17892;52.080;9.006;2023-02-23T06:07:42;27.98;;;18.20;;
31262;SDS011;17892;52.080;9.006;2023-02-23T06:10:07;25.45;;;16.17;;
31262;SDS011;17892;52.080;9.006;2023-02-23T06:12:34;28.02;;;17.45;;
31262;SDS011;17892;52.080;9.006;2023-02-23T06:14:59;27.65;;;16.52;;
31262;SDS011;17892;52.080;9.006;2023-02-23T06:17:25;27.42;;;18.30;;
31262;SDS011;17892;52.080;9.006;2023-02-23T06:19:51;26.33;;;16.38;;
31262;SDS011;17892;52.080;9.006;2023-02-23T06:22:16;25.30;;;16.80;;
31262;SDS011;17892;52.080;9.006;2023-02-23T06:24:42;26.73;;;16.58;;
31262;SDS011;17892;52.080;9.006;2023-02-23T06:27:08;23.50;;;14.85;;
31262;SDS011;17892;52.080;9.006;2023-02-23T06:29:34;25.33;;;17.45;;
31262;SDS011;17892;52.080;9.006;2023-02-23T06:32:02;25.25;;;15.80;;
31262;SDS011;17892;52.080;9.006;2023-02-23T06:34:29;22.23;;;15.57;;
31262;SDS011;17892;52.080;9.006;2023-02-23T06:36:55;25.50;;;16.55;;
31262;SDS011;17892;52.080;9.006;2023-02-23T06:39:21;22.63;;;14.52;;
31262;SDS011;17892;52.080;9.006;2023-02-23T06:41:47;22.38;;;14.20;;
31262;SDS011;17892;52.080;9.006;2023-02-23T06:44:12;22.45;;;14.65;;
31262;SDS011;17892;52.080;9.006;2023-02-23T06:46:38;28.80;;;16.35;;
31262;SDS011;17892;52.080;9.006;2023-02-23T06:49:04;22.98;;;15.45;;
31262;SDS011;17892;52.080;9.006;2023-02-23T06:51:29;21.75;;;13.77;;
31262;SDS011;17892;52.080;9.006;2023-02-23T06:53:55;25.52;;;17.05;;
31262;SDS011;17892;52.080;9.006;2023-02-23T06:56:21;25.73;;;16.55;;
31262;SDS011;17892;52.080;9.006;2023-02-23T06:58:46;28.15;;;17.92;;
31262;SDS011;17892;52.080;9.006;2023-02-23T07:01:13;25.45;;;15.77;;
31262;SDS011;17892;52.080;9.006;2023-02-23T07:03:39;22.58;;;15.07;;
31262;SDS011;17892;52.080;9.006;2023-02-23T07:06:06;24.65;;;16.30;;
31262;SDS011;17892;52.080;9.006;2023-02-23T07:08:33;25.13;;;17.60;;
31262;SDS011;17892;52.080;9.006;2023-02-23T07:11:06;25.83;;;17.58;;
31262;SDS011;17892;52.080;9.006;2023-02-23T07:13:34;24.73;;;15.65;;
31262;SDS011;17892;52.080;9.006;2023-02-23T07:16:00;26.05;;;17.27;;
31262;SDS011;17892;52.080;9.006;2023-02-23T07:18:26;26.25;;;17.23;;
31262;SDS011;17892;52.080;9.006;2023-02-23T07:20:52;23.88;;;17.40;;
31262;SDS011;17892;52.080;9.006;2023-02-23T07:23:18;24.52;;;14.93;;
31262;SDS011;17892;52.080;9.006;2023-02-23T07:25:44;21.58;;;14.13;;
31262;SDS011;17892;52.080;9.006;2023-02-23T07:28:09;22.58;;;14.73;;
31262;SDS011;17892;52.080;9.006;2023-02-23T07:30:38;22.20;;;14.02;;
31262;SDS011;17892;52.080;9.006;2023-02-23T07:33:04;22.60;;;15.77;;
31262;SDS011;17892;52.080;9.006;2023-02-23T07:35:30;22.98;;;14.95;;
31262;SDS011;17892;52.080;9.006;2023-02-23T07:37:55;21.50;;;13.85;;
31262;SDS011;17892;52.080;9.006;2023-02-23T07:40:21;21.15;;;15.23;;
31262;SDS011;17892;52.080;9.006;2023-02-23T07:42:47;21.48;;;14.52;;
31262;SDS011;17892;52.080;9.006;2023-02-23T07:45:13;21.30;;;14.57;;
31262;SDS011;17892;52.080;9.006;2023-02-23T07:47:39;20.08;;;14.70;;
31262;SDS011;17892;52.080;9.006;2023-02-23T07:50:05;18.67;;;12.65;;
31262;SDS011;17892;52.080;9.006;2023-02-23T07:52:36;20.35;;;13.95;;
31262;SDS011;17892;52.080;9.006;2023-02-23T07:55:04;22.02;;;15.55;;
31262;SDS011;17892;52.080;9.006;2023-02-23T07:57:32;19.98;;;13.80;;
31262;SDS011;17892;52.080;9.006;2023-02-23T07:59:58;21.35;;;14.75;;
31262;SDS011;17892;52.080;9.006;2023-02-23T08:02:23;20.98;;;13.70;;
31262;SDS011;17892;52.080;9.006;2023-02-23T08:04:49;19.83;;;14.38;;
31262;SDS011;17892;52.080;9.006;2023-02-23T08:07:18;20.20;;;15.40;;
31262;SDS011;17892;52.080;9.006;2023-02-23T08:09:44;20.02;;;14.25;;
31262;SDS011;17892;52.080;9.006;2023-02-23T08:12:10;18.40;;;12.68;;
31262;SDS011;17892;52.080;9.006;2023-02-23T08:14:35;20.08;;;13.95;;
31262;SDS011;17892;52.080;9.006;2023-02-23T08:17:01;19.25;;;12.88;;
31262;SDS011;17892;52.080;9.006;2023-02-23T08:19:27;19.05;;;14.00;;
31262;SDS011;17892;52.080;9.006;2023-02-23T08:21:53;20.35;;;14.68;;
31262;SDS011;17892;52.080;9.006;2023-02-23T08:24:20;20.33;;;13.82;;
31262;SDS011;17892;52.080;9.006;2023-02-23T08:26:46;19.73;;;15.05;;
31262;SDS011;17892;52.080;9.006;2023-02-23T08:29:13;22.13;;;15.93;;
31262;SDS011;17892;52.080;9.006;2023-02-23T08:31:39;20.63;;;14.35;;
31262;SDS011;17892;52.080;9.006;2023-02-23T08:34:05;22.35;;;15.40;;
31262;SDS011;17892;52.080;9.006;2023-02-23T08:36:31;20.27;;;12.82;;
31262;SDS011;17892;52.080;9.006;2023-02-23T08:38:56;19.77;;;12.65;;
31262;SDS011;17892;52.080;9.006;2023-02-23T08:41:24;20.65;;;13.93;;
31262;SDS011;17892;52.080;9.006;2023-02-23T08:43:51;19.40;;;14.20;;
31262;SDS011;17892;52.080;9.006;2023-02-23T08:46:17;23.80;;;16.17;;
31262;SDS011;17892;52.080;9.006;2023-02-23T08:48:44;22.45;;;14.75;;
31262;SDS011;17892;52.080;9.006;2023-02-23T08:51:11;23.75;;;14.98;;
31262;SDS011;17892;52.080;9.006;2023-02-23T08:53:39;20.58;;;14.32;;
31262;SDS011;17892;52.080;9.006;2023-02-23T08:56:06;23.10;;;15.02;;
31262;SDS011;17892;52.080;9.006;2023-02-23T08:58:32;22.10;;;15.77;;
31262;SDS011;17892;52.080;9.006;2023-02-23T09:01:00;23.23;;;14.82;;
31262;SDS011;17892;52.080;9.006;2023-02-23T09:03:26;25.15;;;16.27;;
31262;SDS011;17892;52.080;9.006;2023-02-23T09:05:54;23.88;;;16.02;;
31262;SDS011;17892;52.080;9.006;2023-02-23T09:08:22;22.55;;;15.77;;
31262;SDS011;17892;52.080;9.006;2023-02-23T09:10:48;23.63;;;15.10;;
31262;SDS011;17892;52.080;9.006;2023-02-23T09:13:13;21.63;;;15.05;;
31262;SDS011;17892;52.080;9.006;2023-02-23T09:15:40;20.95;;;14.25;;
31262;SDS011;17892;52.080;9.006;2023-02-23T09:18:07;21.38;;;14.00;;
31262;SDS011;17892;52.080;9.006;2023-02-23T09:20:39;18.20;;;13.18;;
31262;SDS011;17892;52.080;9.006;2023-02-23T09:23:06;21.63;;;13.50;;
31262;SDS011;17892;52.080;9.006;2023-02-23T09:25:32;20.83;;;13.63;;
31262;SDS011;17892;52.080;9.006;2023-02-23T09:27:58;18.77;;;13.40;;
31262;SDS011;17892;52.080;9.006;2023-02-23T09:30:23;20.05;;;13.50;;
31262;SDS011;17892;52.080;9.006;2023-02-23T09:32:51;21.45;;;13.35;;
31262;SDS011;17892;52.080;9.006;2023-02-23T09:35:20;20.52;;;13.80;;
31262;SDS011;17892;52.080;9.006;2023-02-23T09:37:49;19.60;;;14.18;;
31262;SDS011;17892;52.080;9.006;2023-02-23T09:40:18;18.20;;;12.85;;
31262;SDS011;17892;52.080;9.006;2023-02-23T09:45:41;18.98;;;12.27;;
31262;SDS011;17892;52.080;9.006;2023-02-23T09:48:21;17.77;;;12.93;;
31262;SDS011;17892;52.080;9.006;2023-02-23T09:50:50;21.15;;;14.02;;
31262;SDS011;17892;52.080;9.006;2023-02-23T09:53:41;20.52;;;14.07;;
31262;SDS011;17892;52.080;9.006;2023-02-23T09:59:13;16.27;;;11.73;;
31262;SDS011;17892;52.080;9.006;2023-02-23T10:13:21;27.35;;;17.52;;
31262;SDS011;17892;52.080;9.006;2023-02-23T10:16:19;22.20;;;15.75;;
31262;SDS011;17892;52.080;9.006;2023-02-23T10:18:57;23.23;;;14.90;;
31262;SDS011;17892;52.080;9.006;2023-02-23T10:21:39;23.08;;;14.93;;
31262;SDS011;17892;52.080;9.006;2023-02-23T10:24:20;23.10;;;15.23;;
31262;SDS011;17892;52.080;9.006;2023-02-23T10:27:09;24.08;;;15.75;;
31262;SDS011;17892;52.080;9.006;2023-02-23T10:32:20;26.73;;;16.45;;
31262;SDS011;17892;52.080;9.006;2023-02-23T10:34:56;23.23;;;14.05;;
31262;SDS011;17892;52.080;9.006;2023-02-23T10:37:22;26.17;;;17.20;;
31262;SDS011;17892;52.080;9.006;2023-02-23T10:39:49;23.80;;;15.00;;
31262;SDS011;17892;52.080;9.006;2023-02-23T10:42:17;28.88;;;17.98;;
31262;SDS011;17892;52.080;9.006;2023-02-23T10:44:52;24.52;;;15.10;;
31262;SDS011;17892;52.080;9.006;2023-02-23T10:47:20;28.35;;;17.08;;
31262;SDS011;17892;52.080;9.006;2023-02-23T10:49:50;27.08;;;17.88;;
31262;SDS011;17892;52.080;9.006;2023-02-23T10:52:21;24.00;;;14.70;;
31262;SDS011;17892;52.080;9.006;2023-02-23T10:55:03;23.77;;;14.75;;
31262;SDS011;17892;52.080;9.006;2023-02-23T10:57:32;20.45;;;13.52;;
31262;SDS011;17892;52.080;9.006;2023-02-23T11:02:41;21.52;;;13.18;;
31262;SDS011;17892;52.080;9.006;2023-02-23T11:05:31;19.67;;;13.43;;
31262;SDS011;17892;52.080;9.006;2023-02-23T11:08:07;17.98;;;11.98;;
31262;SDS011;17892;52.080;9.006;2023-02-23T11:11:02;16.88;;;10.40;;
31262;SDS011;17892;52.080;9.006;2023-02-23T11:16:22;12.43;;;8.77;;
31262;SDS011;17892;52.080;9.006;2023-02-23T11:18:54;17.65;;;12.05;;
31262;SDS011;17892;52.080;9.006;2023-02-23T11:21:36;13.35;;;9.35;;
31262;SDS011;17892;52.080;9.006;2023-02-23T11:26:43;14.43;;;10.20;;
31262;SDS011;17892;52.080;9.006;2023-02-23T11:29:16;13.82;;;9.82;;
31262;SDS011;17892;52.080;9.006;2023-02-23T11:32:02;15.05;;;10.25;;
31262;SDS011;17892;52.080;9.006;2023-02-23T11:34:34;15.10;;;10.73;;
31262;SDS011;17892;52.080;9.006;2023-02-23T11:39:57;19.42;;;12.65;;
31262;SDS011;17892;52.080;9.006;2023-02-23T11:42:30;13.90;;;8.95;;
31262;SDS011;17892;52.080;9.006;2023-02-23T11:47:39;17.58;;;10.77;;
31262;SDS011;17892;52.080;9.006;2023-02-23T11:50:20;16.25;;;9.85;;
31262;SDS011;17892;52.080;9.006;2023-02-23T11:53:10;13.02;;;7.70;;
31262;SDS011;17892;52.080;9.006;2023-02-23T11:55:43;13.10;;;8.63;;
31262;SDS011;17892;52.080;9.006;2023-02-23T12:01:04;15.15;;;8.63;;
31262;SDS011;17892;52.080;9.006;2023-02-23T12:03:39;16.08;;;9.15;;
31262;SDS011;17892;52.080;9.006;2023-02-23T12:06:33;14.00;;;8.32;;
31262;SDS011;17892;52.080;9.006;2023-02-23T12:09:04;13.23;;;8.65;;
31262;SDS011;17892;52.080;9.006;2023-02-23T12:11:44;13.00;;;7.63;;
31262;SDS011;17892;52.080;9.006;2023-02-23T12:14:24;12.35;;;7.28;;
31262;SDS011;17892;52.080;9.006;2023-02-23T12:19:45;14.43;;;9.32;;
31262;SDS011;17892;52.080;9.006;2023-02-23T12:22:20;15.05;;;8.80;;
31262;SDS011;17892;52.080;9.006;2023-02-23T12:25:00;13.27;;;8.32;;
31262;SDS011;17892;52.080;9.006;2023-02-23T12:27:43;14.25;;;8.88;;
31262;SDS011;17892;52.080;9.006;2023-02-23T12:30:30;16.70;;;9.98;;
31262;SDS011;17892;52.080;9.006;2023-02-23T12:33:23;13.27;;;7.47;;
31262;SDS011;17892;52.080;9.006;2023-02-23T12:39:14;15.25;;;8.23;;
31262;SDS011;17892;52.080;9.006;2023-02-23T12:42:01;17.10;;;9.95;;
31262;SDS011;17892;52.080;9.006;2023-02-23T12:44:58;19.05;;;10.80;;
31262;SDS011;17892;52.080;9.006;2023-02-23T12:47:47;15.25;;;9.20;;
31262;SDS011;17892;52.080;9.006;2023-02-23T12:55:49;17.80;;;9.50;;
31262;SDS011;17892;52.080;9.006;2023-02-23T12:58:40;13.70;;;8.18;;
31262;SDS011;17892;52.080;9.006;2023-02-23T13:01:28;16.70;;;9.55;;
31262;SDS011;17892;52.080;9.006;2023-02-23T13:04:31;16.92;;;8.85;;
31262;SDS011;17892;52.080;9.006;2023-02-23T13:13:24;21.25;;;12.00;;
31262;SDS011;17892;52.080;9.006;2023-02-23T13:22:01;20.50;;;11.93;;
31262;SDS011;17892;52.080;9.006;2023-02-23T13:24:50;16.40;;;9.85;;
31262;SDS011;17892;52.080;9.006;2023-02-23T13:27:26;18.98;;;9.85;;
31262;SDS011;17892;52.080;9.006;2023-02-23T13:30:02;18.90;;;9.90;;
31262;SDS011;17892;52.080;9.006;2023-02-23T13:32:30;17.48;;;9.43;;
31262;SDS011;17892;52.080;9.006;2023-02-23T13:35:02;18.52;;;10.02;;
31262;SDS011;17892;52.080;9.006;2023-02-23T13:37:36;19.33;;;10.95;;
31262;SDS011;17892;52.080;9.006;2023-02-23T13:40:31;22.17;;;10.77;;
31262;SDS011;17892;52.080;9.006;2023-02-23T13:43:18;15.57;;;8.52;;
31262;SDS011;17892;52.080;9.006;2023-02-23T13:46:01;19.73;;;10.32;;
31262;SDS011;17892;52.080;9.006;2023-02-23T13:54:04;19.13;;;10.45;;
31262;SDS011;17892;52.080;9.006;2023-02-23T13:56:43;17.08;;;9.38;;
31262;SDS011;17892;52.080;9.006;2023-02-23T13:59:29;16.30;;;9.05;;
31262;SDS011;17892;52.080;9.006;2023-02-23T14:02:13;17.83;;;10.05;;
31262;SDS011;17892;52.080;9.006;2023-02-23T14:07:53;18.25;;;9.90;;
31262;SDS011;17892;52.080;9.006;2023-02-23T14:10:26;16.83;;;8.73;;
31262;SDS011;17892;52.080;9.006;2023-02-23T14:15:44;17.17;;;8.43;;
31262;SDS011;17892;52.080;9.006;2023-02-23T14:20:50;19.42;;;10.50;;
31262;SDS011;17892;52.080;9.006;2023-02-23T14:31:17;17.05;;;8.18;;
31262;SDS011;17892;52.080;9.006;2023-02-23T14:44:18;13.80;;;6.00;;
31262;SDS011;17892;52.080;9.006;2023-02-23T14:46:54;16.30;;;7.30;;
31262;SDS011;17892;52.080;9.006;2023-02-23T14:49:26;16.15;;;6.68;;
31262;SDS011;17892;52.080;9.006;2023-02-23T14:51:56;15.13;;;7.28;;
31262;SDS011;17892;52.080;9.006;2023-02-23T14:54:30;17.10;;;7.53;;
31262;SDS011;17892;52.080;9.006;2023-02-23T14:57:03;16.73;;;8.30;;
31262;SDS011;17892;52.080;9.006;2023-02-23T14:59:41;13.77;;;7.75;;
31262;SDS011;17892;52.080;9.006;2023-02-23T15:02:11;16.02;;;7.60;;
31262;SDS011;17892;52.080;9.006;2023-02-23T15:04:44;15.15;;;7.40;;
31262;SDS011;17892;52.080;9.006;2023-02-23T15:07:14;15.00;;;7.13;;
31262;SDS011;17892;52.080;9.006;2023-02-23T15:09:55;17.08;;;6.93;;
31262;SDS011;17892;52.080;9.006;2023-02-23T15:12:27;14.65;;;6.05;;
31262;SDS011;17892;52.080;9.006;2023-02-23T15:17:27;16.30;;;8.10;;
31262;SDS011;17892;52.080;9.006;2023-02-23T15:19:57;16.33;;;7.28;;
31262;SDS011;17892;52.080;9.006;2023-02-23T15:22:31;12.25;;;6.78;;
31262;SDS011;17892;52.080;9.006;2023-02-23T15:25:01;12.10;;;5.93;;
31262;SDS011;17892;52.080;9.006;2023-02-23T15:27:40;11.43;;;5.65;;
31262;SDS011;17892;52.080;9.006;2023-02-23T15:30:22;13.23;;;6.00;;
31262;SDS011;17892;52.080;9.006;2023-02-23T15:33:13;11.43;;;5.05;;
31262;SDS011;17892;52.080;9.006;2023-02-23T15:36:00;12.88;;;6.20;;
31262;SDS011;17892;52.080;9.006;2023-02-23T15:38:42;10.95;;;4.65;;
31262;SDS011;17892;52.080;9.006;2023-02-23T15:41:33;13.90;;;5.80;;
31262;SDS011;17892;52.080;9.006;2023-02-23T15:44:14;11.88;;;5.43;;
31262;SDS011;17892;52.080;9.006;2023-02-23T15:46:54;15.35;;;5.65;;
31262;SDS011;17892;52.080;9.006;2023-02-23T15:49:28;13.05;;;5.18;;
31262;SDS011;17892;52.080;9.006;2023-02-23T15:51:58;12.00;;;4.78;;
31262;SDS011;17892;52.080;9.006;2023-02-23T15:54:32;15.40;;;6.57;;
31262;SDS011;17892;52.080;9.006;2023-02-23T15:57:19;11.70;;;5.47;;
31262;SDS011;17892;52.080;9.006;2023-02-23T15:59:52;14.25;;;6.28;;
31262;SDS011;17892;52.080;9.006;2023-02-23T16:02:23;13.73;;;5.85;;
31262;SDS011;17892;52.080;9.006;2023-02-23T16:04:50;13.15;;;5.13;;
31262;SDS011;17892;52.080;9.006;2023-02-23T16:07:22;16.55;;;6.85;;
31262;SDS011;17892;52.080;9.006;2023-02-23T16:10:14;12.88;;;5.90;;
31262;SDS011;17892;52.080;9.006;2023-02-23T16:12:48;13.45;;;5.90;;
31262;SDS011;17892;52.080;9.006;2023-02-23T16:15:19;15.63;;;6.43;;
31262;SDS011;17892;52.080;9.006;2023-02-23T16:18:03;15.57;;;6.43;;
31262;SDS011;17892;52.080;9.006;2023-02-23T16:20:39;13.63;;;6.68;;
31262;SDS011;17892;52.080;9.006;2023-02-23T16:26:04;11.05;;;5.22;;
31262;SDS011;17892;52.080;9.006;2023-02-23T16:28:35;13.45;;;6.22;;
31262;SDS011;17892;52.080;9.006;2023-02-23T16:31:07;12.35;;;5.82;;
31262;SDS011;17892;52.080;9.006;2023-02-23T16:33:44;12.88;;;6.00;;
31262;SDS011;17892;52.080;9.006;2023-02-23T16:36:32;14.65;;;5.72;;
31262;SDS011;17892;52.080;9.006;2023-02-23T16:39:09;13.93;;;6.03;;
31262;SDS011;17892;52.080;9.006;2023-02-23T16:41:37;11.10;;;5.43;;
31262;SDS011;17892;52.080;9.006;2023-02-23T16:44:03;14.18;;;6.18;;
31262;SDS011;17892;52.080;9.006;2023-02-23T16:46:32;14.25;;;7.25;;
31262;SDS011;17892;52.080;9.006;2023-02-23T16:49:26;15.43;;;6.45;;
31262;SDS011;17892;52.080;9.006;2023-02-23T16:51:56;13.82;;;6.00;;
31262;SDS011;17892;52.080;9.006;2023-02-23T16:54:23;14.13;;;6.32;;
31262;SDS011;17892;52.080;9.006;2023-02-23T16:56:49;11.10;;;5.15;;
31262;SDS011;17892;52.080;9.006;2023-02-23T16:59:19;13.27;;;6.05;;
31262;SDS011;17892;52.080;9.006;2023-02-23T17:01:46;13.25;;;5.75;;
31262;SDS011;17892;52.080;9.006;2023-02-23T17:04:13;13.23;;;5.70;;
31262;SDS011;17892;52.080;9.006;2023-02-23T17:06:42;13.43;;;6.18;;
31262;SDS011;17892;52.080;9.006;2023-02-23T17:09:09;12.30;;;5.38;;
31262;SDS011;17892;52.080;9.006;2023-02-23T17:11:36;11.60;;;5.30;;
31262;SDS011;17892;52.080;9.006;2023-02-23T17:14:04;11.80;;;5.00;;
31262;SDS011;17892;52.080;9.006;2023-02-23T17:16:30;12.15;;;5.43;;